Kure Beach, North Carolina
Current Conditions -  °F | °C
As of 11:55 AM on Wednesday 22 Oct 2014 (Local Time) from KSUT Reporting Station
Clear Clear  
Wind Chill: 62°   Ceiling: Unl
Heat Index: 62°   Visibility: 10mi
Dew Point: 43°   Wind: 8mph
Humidity: 51%   Direction: 330°NNW
Pressure: 29.98"   Gusts: NA
Location:  34°N, 77.91°W
Report Text: KSUT 221555Z AUTO 33007KT 290V350 10SM CLR 17/06 A2998 RMK AO2 T01660063
Loading
Personal Weather Stations






























Interactive Weather Map
Tropical Storm Tracking
New forecast layout! Learn more

10-Day Weather Forecast

Advertisements
Track Severe Weather on mobile